Time;durP1;ratioP1;P1;durP2;ratioP2;P2;SDS_P1;SDS_P2;PMS_P1;PMS_P2;Temp;Humidity;BMP_temperature;BMP_pressure;BME280_temperature;BME280_humidity;BME280_pressure;Samples;Min_cycle;Max_cycle;Signal;HPM_P1;HPM_P2
2021/09/05 00:00:55;;;;;;;16.35;10.20;;;15.20;99.90;;;;;;4748655;29;20079;-82
2021/09/05 00:03:22;;;;;;;16.90;9.63;;;15.10;99.90;;;;;;4747443;29;20098;-82
2021/09/05 00:05:48;;;;;;;15.02;9.63;;;15.20;99.90;;;;;;4764597;29;20489;-82
2021/09/05 00:08:15;;;;;;;12.63;9.00;;;15.10;99.90;;;;;;4755488;30;20066;-82
2021/09/05 00:10:41;;;;;;;15.85;9.10;;;15.10;99.90;;;;;;4742745;29;20062;-81
2021/09/05 00:13:08;;;;;;;16.88;9.85;;;15.10;99.90;;;;;;4756789;29;20074;-81
2021/09/05 00:15:34;;;;;;;14.00;8.10;;;15.10;99.90;;;;;;4784126;29;20039;-81
2021/09/05 00:18:01;;;;;;;13.85;8.88;;;15.00;99.90;;;;;;4736863;30;20047;-82
2021/09/05 00:20:27;;;;;;;15.63;9.60;;;15.00;99.90;;;;;;4738585;29;20047;-81
2021/09/05 00:22:54;;;;;;;16.48;9.40;;;15.00;99.90;;;;;;4740147;30;20062;-81
2021/09/05 00:25:20;;;;;;;12.43;8.05;;;14.90;99.90;;;;;;4754658;30;20424;-82
2021/09/05 00:27:47;;;;;;;16.02;9.45;;;14.90;99.90;;;;;;4751722;29;20043;-81
2021/09/05 00:30:13;;;;;;;14.00;8.60;;;14.80;99.90;;;;;;4737570;30;20071;-82
2021/09/05 00:32:40;;;;;;;19.30;9.10;;;14.80;99.90;;;;;;4736922;29;20047;-82
2021/09/05 00:35:07;;;;;;;11.55;8.10;;;14.80;99.90;;;;;;4766804;30;20055;-81
2021/09/05 00:37:33;;;;;;;14.85;9.32;;;14.70;99.90;;;;;;4736068;29;20055;-81
2021/09/05 00:40:00;;;;;;;14.57;8.95;;;14.70;99.90;;;;;;4751907;30;20381;-81
2021/09/05 00:42:27;;;;;;;13.40;8.70;;;14.70;99.90;;;;;;4737408;30;20238;-82
2021/09/05 00:44:55;;;;;;;15.13;10.00;;;14.70;99.90;;;;;;4750448;30;20058;-82
2021/09/05 00:47:21;;;;;;;13.27;9.02;;;14.60;99.90;;;;;;4766529;29;20051;-81
2021/09/05 00:49:48;;;;;;;15.57;9.88;;;14.60;99.90;;;;;;4738594;30;20059;-82
2021/09/05 00:52:16;;;;;;;14.43;8.68;;;14.60;99.90;;;;;;4767076;30;20044;-82
2021/09/05 00:54:43;;;;;;;18.15;9.60;;;14.60;99.90;;;;;;4739151;30;20054;-82
2021/09/05 00:57:13;;;;;;;14.95;10.30;;;14.50;99.90;;;;;;4722804;30;20066;-81
2021/09/05 00:59:40;;;;;;;13.50;8.45;;;14.50;99.90;;;;;;4750123;30;20051;-81
2021/09/05 01:02:09;;;;;;;14.93;9.80;;;14.50;99.90;;;;;;4750955;30;20055;-81
2021/09/05 01:04:37;;;;;;;17.08;9.27;;;14.50;99.90;;;;;;4736941;29;20058;-81
2021/09/05 01:07:06;;;;;;;20.17;9.70;;;14.40;99.90;;;;;;4748868;29;21510;-82
2021/09/05 01:09:35;;;;;;;16.33;8.65;;;14.40;99.90;;;;;;4765746;30;20059;-82
2021/09/05 01:12:03;;;;;;;14.15;8.38;;;14.40;99.90;;;;;;4739610;29;20055;-82
2021/09/05 01:14:30;;;;;;;13.73;8.00;;;14.30;99.90;;;;;;4765300;29;20039;-82
2021/09/05 01:16:58;;;;;;;14.55;8.05;;;14.40;99.90;;;;;;4738762;29;20055;-81
2021/09/05 01:19:43;;;;;;;17.05;9.85;;;14.30;99.90;;;;;;4763683;29;20062;-81
2021/09/05 01:22:29;;;;;;;18.65;10.15;;;14.30;99.90;;;;;;4765262;29;20062;-81
2021/09/05 01:25:14;;;;;;;13.15;8.38;;;14.30;99.90;;;;;;4784663;29;20046;-82
2021/09/05 01:27:59;;;;;;;17.75;9.43;;;14.30;99.90;;;;;;4777675;29;20055;-81
2021/09/05 01:30:44;;;;;;;16.50;9.77;;;14.20;99.90;;;;;;4789225;29;20051;-82
2021/09/05 01:33:29;;;;;;;18.05;9.45;;;14.30;99.90;;;;;;4771456;29;20479;-82
2021/09/05 01:36:01;;;;;;;;;;;14.30;99.90;;;;;;4765268;30;20055;-79
2021/09/05 01:38:46;;;;;;;15.60;9.65;;;14.30;99.90;;;;;;4785434;29;19932;-79
2021/09/05 01:41:31;;;;;;;16.23;8.40;;;14.30;99.90;;;;;;4763082;29;20043;-79
2021/09/05 01:44:19;;;;;;;14.65;7.80;;;14.30;99.90;;;;;;4783811;29;20525;-79
2021/09/05 01:47:05;;;;;;;14.77;8.23;;;14.20;99.90;;;;;;4757611;29;20043;-79
2021/09/05 01:49:54;;;;;;;16.58;8.65;;;14.20;99.90;;;;;;4765903;30;20071;-79
2021/09/05 01:52:56;;;;;;;17.75;9.30;;;14.20;99.90;;;;;;4724971;30;20412;-79
2021/09/05 01:55:25;;;;;;;17.85;9.25;;;14.10;99.90;;;;;;4776703;29;20415;-74
2021/09/05 01:58:18;;;;;;;14.57;8.98;;;14.10;99.90;;;;;;4752545;29;20047;-74
2021/09/05 02:00:57;;;;;;;15.27;8.35;;;14.10;99.90;;;;;;4789868;29;20547;-74
2021/09/05 02:03:42;;;;;;;15.70;8.85;;;14.10;99.90;;;;;;4753820;29;20508;-82
2021/09/05 02:06:27;;;;;;;12.25;7.35;;;14.10;99.90;;;;;;4768915;29;20854;-82
2021/09/05 02:09:32;;;;;;;14.77;8.82;;;14.10;99.90;;;;;;4783946;29;20047;-81
2021/09/05 02:12:33;;;;;;;18.05;8.25;;;14.00;99.90;;;;;;4741908;30;20067;-77
2021/09/05 02:15:33;;;;;;;12.60;7.43;;;14.10;99.90;;;;;;4766544;29;20039;-77
2021/09/05 02:18:22;;;;;;;12.68;7.28;;;14.00;99.90;;;;;;4766347;29;20047;-74
2021/09/05 02:21:01;;;;;;;13.13;6.97;;;14.00;99.90;;;;;;4754784;29;20053;-75
2021/09/05 02:23:46;;;;;;;12.52;7.90;;;13.90;99.90;;;;;;4784225;29;20377;-74
2021/09/05 02:26:31;;;;;;;14.60;7.90;;;13.90;99.90;;;;;;4783636;29;20039;-79
2021/09/05 02:29:24;;;;;;;13.80;7.63;;;13.90;99.90;;;;;;4739101;29;20066;-79
2021/09/05 02:32:08;;;;;;;14.10;7.63;;;13.80;99.90;;;;;;4766740;30;20043;-79
2021/09/05 02:34:55;;;;;;;11.55;7.18;;;13.80;99.90;;;;;;4758883;29;20488;-79
2021/09/05 02:37:50;;;;;;;15.38;9.25;;;13.80;99.90;;;;;;4780254;29;20528;-79
2021/09/05 02:40:29;;;;;;;10.55;7.70;;;13.80;99.90;;;;;;4752505;29;20059;-79
2021/09/05 02:43:11;;;;;;;16.75;8.32;;;13.80;99.90;;;;;;4765967;29;20042;-79
2021/09/05 02:45:56;;;;;;;11.43;8.00;;;13.70;99.90;;;;;;4770815;29;20070;-79
2021/09/05 02:48:43;;;;;;;15.43;9.25;;;13.70;99.90;;;;;;4767437;29;20059;-81
2021/09/05 02:51:29;;;;;;;12.98;8.73;;;13.70;99.90;;;;;;4782333;29;20039;-81
2021/09/05 02:54:27;;;;;;;16.00;8.32;;;13.70;99.90;;;;;;4768497;29;20067;-79
2021/09/05 02:57:26;;;;;;;14.77;8.55;;;13.70;99.90;;;;;;4765578;29;20059;-81
2021/09/05 03:00:17;;;;;;;15.80;8.93;;;13.70;99.90;;;;;;4767803;30;20060;-82
2021/09/05 03:03:01;;;;;;;14.75;8.70;;;13.60;99.90;;;;;;4762222;29;20048;-81
2021/09/05 03:05:46;;;;;;;12.93;7.18;;;13.60;99.90;;;;;;4764667;30;20404;-81
2021/09/05 03:08:28;;;;;;;11.13;7.88;;;13.60;99.90;;;;;;4749919;29;20054;-81
2021/09/05 03:11:15;;;;;;;16.75;8.85;;;13.50;99.90;;;;;;4785306;29;20058;-81
2021/09/05 03:14:12;;;;;;;12.65;7.25;;;13.50;99.90;;;;;;4786822;29;20055;-82
2021/09/05 03:17:14;;;;;;;13.25;7.75;;;13.40;99.90;;;;;;4768146;29;20047;-81
2021/09/05 03:20:04;;;;;;;12.65;9.02;;;13.40;99.90;;;;;;4763774;29;20058;-81
2021/09/05 03:22:53;;;;;;;12.90;7.95;;;13.30;99.90;;;;;;4779373;29;20419;-81
2021/09/05 03:25:40;;;;;;;12.57;6.95;;;13.30;99.90;;;;;;4792564;29;20562;-81
2021/09/05 03:28:29;;;;;;;13.52;7.38;;;13.30;99.90;;;;;;4788368;29;20458;-81
2021/09/05 03:31:24;;;;;;;17.27;8.35;;;13.30;99.90;;;;;;4780530;29;20503;-79
2021/09/05 03:34:11;;;;;;;14.05;7.97;;;13.20;99.90;;;;;;4775058;29;20054;-79
2021/09/05 03:37:09;;;;;;;15.98;8.68;;;13.20;99.90;;;;;;4747583;29;20055;-79
2021/09/05 03:39:47;;;;;;;13.95;7.72;;;13.10;99.90;;;;;;4772480;29;20047;-79
2021/09/05 03:42:50;;;;;;;13.30;7.27;;;13.10;99.90;;;;;;4770524;29;20067;-79
2021/09/05 03:45:36;;;;;;;13.57;7.57;;;13.00;99.90;;;;;;4771790;29;20067;-79
2021/09/05 03:48:20;;;;;;;12.13;7.03;;;13.00;99.90;;;;;;4773328;29;20066;-81
2021/09/05 03:50:58;;;;;;;13.73;7.60;;;13.00;99.90;;;;;;4771778;29;20290;-81
2021/09/05 03:53:26;;;;;;;12.60;7.05;;;13.00;99.90;;;;;;4772098;29;20054;-81
2021/09/05 03:55:54;;;;;;;11.45;6.55;;;12.90;99.90;;;;;;4755978;29;20043;-81
2021/09/05 03:58:22;;;;;;;15.40;8.40;;;12.90;99.90;;;;;;4769627;29;20046;-81
2021/09/05 04:00:49;;;;;;;14.30;7.43;;;12.90;99.90;;;;;;4772093;29;20060;-78
2021/09/05 04:03:16;;;;;;;13.50;7.82;;;12.80;99.90;;;;;;4770682;29;20043;-79
2021/09/05 04:05:42;;;;;;;12.30;7.57;;;12.80;99.90;;;;;;4754374;29;20619;-79
2021/09/05 04:10:37;;;;;;;14.02;7.95;;;12.70;99.90;;;;;;4771389;29;20050;-78
2021/09/05 04:13:07;;;;;;;13.35;7.72;;;12.70;99.90;;;;;;4771378;29;20046;-78
2021/09/05 04:15:34;;;;;;;11.88;7.40;;;12.70;99.90;;;;;;4768837;29;20040;-81
2021/09/05 04:18:00;;;;;;;14.50;8.15;;;12.70;99.90;;;;;;4781113;29;20038;-81
2021/09/05 04:20:26;;;;;;;12.50;8.02;;;12.70;99.90;;;;;;4786213;29;20043;-81
2021/09/05 04:22:53;;;;;;;12.82;7.60;;;12.70;99.90;;;;;;4784169;29;20038;-81
2021/09/05 04:25:19;;;;;;;13.50;7.30;;;12.60;99.90;;;;;;4768256;29;20058;-75
2021/09/05 04:27:46;;;;;;;11.10;6.38;;;12.60;99.90;;;;;;4784736;29;20043;-75
2021/09/05 04:30:13;;;;;;;16.42;8.57;;;12.60;99.90;;;;;;4781639;29;20496;-74
2021/09/05 04:32:40;;;;;;;11.13;7.15;;;12.60;99.90;;;;;;4785758;29;20050;-74
2021/09/05 04:35:07;;;;;;;13.18;8.35;;;12.60;99.90;;;;;;4783564;29;20043;-74
2021/09/05 04:37:34;;;;;;;17.25;8.15;;;12.50;99.90;;;;;;4767163;29;20062;-74
2021/09/05 04:40:02;;;;;;;19.10;10.77;;;12.50;99.90;;;;;;4783209;29;20039;-74
2021/09/05 04:42:28;;;;;;;14.38;9.27;;;12.50;99.90;;;;;;4782206;29;20047;-74
2021/09/05 04:44:55;;;;;;;12.43;7.97;;;12.50;99.90;;;;;;4783038;29;20055;-74
2021/09/05 04:47:21;;;;;;;12.45;7.55;;;12.40;99.90;;;;;;4784106;29;20428;-75
2021/09/05 04:49:48;;;;;;;12.40;8.13;;;12.40;99.90;;;;;;4782245;29;20047;-74
2021/09/05 04:52:14;;;;;;;16.20;10.00;;;12.40;99.90;;;;;;4781817;29;20496;-74
2021/09/05 04:54:41;;;;;;;15.13;8.93;;;12.40;99.90;;;;;;4782009;29;20047;-74
2021/09/05 04:57:07;;;;;;;17.90;9.38;;;12.30;99.90;;;;;;4790494;29;20038;-74
2021/09/05 04:59:34;;;;;;;14.60;9.80;;;12.30;99.90;;;;;;4768986;29;20396;-74
2021/09/05 05:02:00;;;;;;;16.60;9.27;;;12.30;99.90;;;;;;4768642;29;20043;-74
2021/09/05 05:04:27;;;;;;;17.02;9.80;;;12.30;99.90;;;;;;4774188;29;20527;-74
2021/09/05 05:06:53;;;;;;;15.65;10.60;;;12.20;99.90;;;;;;4785371;29;20146;-74
2021/09/05 05:09:19;;;;;;;18.35;9.25;;;12.20;99.90;;;;;;4773668;29;20432;-75
2021/09/05 05:11:46;;;;;;;14.27;10.00;;;12.20;99.90;;;;;;4791642;29;20051;-77
2021/09/05 05:14:12;;;;;;;18.35;10.20;;;12.20;99.90;;;;;;4787013;29;20053;-77
2021/09/05 05:16:39;;;;;;;18.50;11.40;;;12.20;99.90;;;;;;4788391;29;20503;-74
2021/09/05 05:19:06;;;;;;;15.07;9.13;;;12.20;99.90;;;;;;4786328;29;20046;-74
2021/09/05 05:21:34;;;;;;;13.77;9.30;;;12.20;99.90;;;;;;4769864;29;20034;-75
2021/09/05 05:24:01;;;;;;;14.95;9.55;;;12.20;99.90;;;;;;4785871;29;20391;-77
2021/09/05 05:26:27;;;;;;;14.75;10.05;;;12.10;99.90;;;;;;4771874;29;20043;-74
2021/09/05 05:28:55;;;;;;;14.35;8.93;;;12.20;99.90;;;;;;4782966;29;20039;-74
2021/09/05 05:31:21;;;;;;;19.33;10.52;;;12.20;99.90;;;;;;4787637;29;20054;-74
2021/09/05 05:33:47;;;;;;;16.13;10.38;;;12.10;99.90;;;;;;4786348;29;20043;-75
2021/09/05 05:36:14;;;;;;;17.55;9.50;;;12.20;99.90;;;;;;4785591;29;20046;-77
2021/09/05 05:38:42;;;;;;;19.73;10.75;;;12.20;99.90;;;;;;4784555;29;20538;-78
2021/09/05 05:41:10;;;;;;;19.58;11.45;;;12.20;99.90;;;;;;4770617;29;20042;-81
2021/09/05 05:43:37;;;;;;;16.80;9.35;;;12.20;99.90;;;;;;4767356;29;20047;-81
2021/09/05 05:46:03;;;;;;;15.27;9.65;;;12.20;99.90;;;;;;4785901;29;20055;-81
2021/09/05 05:48:29;;;;;;;16.52;9.27;;;12.30;99.90;;;;;;4764701;29;20039;-81
2021/09/05 05:50:57;;;;;;;14.43;9.32;;;12.30;99.90;;;;;;4784718;29;20396;-81
2021/09/05 05:53:23;;;;;;;14.68;9.60;;;12.40;99.90;;;;;;4767268;29;20042;-81
2021/09/05 05:55:50;;;;;;;16.38;9.52;;;12.40;99.90;;;;;;4782438;29;20046;-81
2021/09/05 05:58:16;;;;;;;15.68;9.77;;;12.50;99.90;;;;;;4751069;29;20400;-81
2021/09/05 06:00:45;;;;;;;17.90;9.75;;;12.50;99.90;;;;;;4756195;29;20058;-80
2021/09/05 06:03:11;;;;;;;23.25;13.80;;;12.60;99.90;;;;;;4765529;29;20043;-81
2021/09/05 06:05:39;;;;;;;22.00;10.93;;;12.70;99.90;;;;;;4752062;29;20054;-81
2021/09/05 06:08:08;;;;;;;14.50;9.10;;;12.80;99.90;;;;;;4778882;29;20039;-81
2021/09/05 06:10:34;;;;;;;16.75;10.40;;;13.00;99.90;;;;;;4768689;29;20051;-77
2021/09/05 06:13:01;;;;;;;18.05;10.57;;;13.10;99.90;;;;;;4784802;29;20035;-77
2021/09/05 06:15:27;;;;;;;18.88;11.50;;;13.20;99.90;;;;;;4784030;29;20042;-81
2021/09/05 06:17:53;;;;;;;14.82;8.63;;;13.40;99.90;;;;;;4782548;29;20040;-81
2021/09/05 06:20:20;;;;;;;14.45;8.43;;;13.60;99.90;;;;;;4767876;30;20067;-81
2021/09/05 06:22:48;;;;;;;17.65;11.10;;;13.70;99.90;;;;;;4785048;29;20702;-77
2021/09/05 06:25:14;;;;;;;13.95;9.05;;;13.80;99.90;;;;;;4783381;29;20042;-75
2021/09/05 06:27:41;;;;;;;15.02;9.95;;;14.00;99.90;;;;;;4783241;29;20047;-74
2021/09/05 06:30:08;;;;;;;13.38;8.73;;;14.10;99.90;;;;;;4768750;29;20066;-76
2021/09/05 06:32:35;;;;;;;15.90;9.18;;;14.30;99.90;;;;;;4782711;29;20046;-83
2021/09/05 06:35:02;;;;;;;14.68;9.00;;;14.40;99.90;;;;;;4766095;29;20071;-74
2021/09/05 06:37:30;;;;;;;14.63;9.63;;;14.50;99.90;;;;;;4767429;29;20054;-75
2021/09/05 06:39:57;;;;;;;16.65;9.93;;;14.70;99.90;;;;;;4780225;29;20590;-75
2021/09/05 06:42:23;;;;;;;14.07;8.75;;;14.80;99.90;;;;;;4766784;29;20518;-75
2021/09/05 06:44:50;;;;;;;15.15;9.13;;;14.90;99.90;;;;;;4784155;29;20042;-84
2021/09/05 06:47:16;;;;;;;16.45;10.27;;;14.90;99.90;;;;;;4767243;29;20054;-83
2021/09/05 06:49:43;;;;;;;15.23;9.05;;;15.00;99.90;;;;;;4766512;29;20047;-82
2021/09/05 06:52:09;;;;;;;19.25;9.07;;;15.10;99.90;;;;;;4786893;29;20050;-81
2021/09/05 06:54:36;;;;;;;12.20;8.23;;;15.20;99.90;;;;;;4773686;29;20049;-81
2021/09/05 06:57:04;;;;;;;17.15;9.20;;;15.30;99.90;;;;;;4773501;29;20902;-84
2021/09/05 06:59:30;;;;;;;19.27;8.90;;;15.40;99.90;;;;;;4774323;29;20523;-81
2021/09/05 07:01:57;;;;;;;11.65;7.18;;;15.50;99.90;;;;;;4773163;29;20061;-81
2021/09/05 07:04:23;;;;;;;12.52;7.97;;;15.60;99.90;;;;;;4770696;29;20072;-81
2021/09/05 07:06:50;;;;;;;12.73;8.40;;;15.80;99.90;;;;;;4772378;29;20081;-80
2021/09/05 07:09:16;;;;;;;14.95;7.75;;;15.90;99.90;;;;;;4761988;29;20047;-84
2021/09/05 07:11:42;;;;;;;11.20;7.30;;;15.90;99.90;;;;;;4760066;29;20058;-81
2021/09/05 07:14:09;;;;;;;11.68;6.40;;;16.00;99.90;;;;;;4768997;29;20035;-81
2021/09/05 07:16:35;;;;;;;10.63;6.28;;;16.10;99.90;;;;;;4784856;29;20047;-81
2021/09/05 07:19:02;;;;;;;12.90;6.88;;;16.20;99.90;;;;;;4785321;29;20039;-82
2021/09/05 07:21:28;;;;;;;11.77;6.80;;;16.30;99.90;;;;;;4769361;29;20542;-81
2021/09/05 07:23:54;;;;;;;11.18;6.65;;;16.40;99.90;;;;;;4755180;29;20047;-82
2021/09/05 07:26:21;;;;;;;11.02;6.75;;;16.50;99.90;;;;;;4751902;29;20531;-81
2021/09/05 07:28:48;;;;;;;13.38;6.40;;;16.60;99.70;;;;;;4782112;29;20583;-80
2021/09/05 07:31:14;;;;;;;13.20;7.45;;;16.70;99.50;;;;;;4782472;29;20043;-81
2021/09/05 07:33:44;;;;;;;9.77;6.28;;;16.80;99.20;;;;;;4766116;30;20496;-74
2021/09/05 07:36:10;;;;;;;10.18;6.13;;;16.80;99.10;;;;;;4766012;29;20039;-74
2021/09/05 07:38:37;;;;;;;12.18;7.55;;;16.90;99.00;;;;;;4781101;29;20040;-74
2021/09/05 07:41:03;;;;;;;13.15;7.80;;;17.00;98.60;;;;;;4782375;29;20051;-74
2021/09/05 07:43:30;;;;;;;12.23;6.68;;;17.00;98.30;;;;;;4779762;29;20047;-74
2021/09/05 07:45:56;;;;;;;9.38;5.82;;;17.00;98.30;;;;;;4782916;29;20063;-74
2021/09/05 07:48:23;;;;;;;10.57;5.90;;;17.10;98.40;;;;;;4761307;29;20042;-74
2021/09/05 07:50:49;;;;;;;10.48;6.00;;;17.30;98.20;;;;;;4781059;29;20066;-74
2021/09/05 07:53:16;;;;;;;9.68;6.30;;;17.40;98.20;;;;;;4765095;30;20055;-74
2021/09/05 07:55:43;;;;;;;11.05;6.63;;;17.50;97.90;;;;;;4751032;29;20039;-74
2021/09/05 07:58:09;;;;;;;13.82;7.28;;;17.50;97.70;;;;;;4782158;29;20047;-74
2021/09/05 08:00:35;;;;;;;10.15;5.88;;;17.60;97.50;;;;;;4782720;29;20043;-74
2021/09/05 08:03:02;;;;;;;10.13;6.25;;;17.60;97.40;;;;;;4781785;29;20039;-74
2021/09/05 08:05:28;;;;;;;10.52;6.38;;;17.80;97.40;;;;;;4782659;29;20072;-74
2021/09/05 08:07:55;;;;;;;9.48;5.03;;;17.80;97.20;;;;;;4779913;29;20036;-74
2021/09/05 08:10:21;;;;;;;8.43;5.00;;;18.00;97.30;;;;;;4765888;30;20043;-74
2021/09/05 08:12:48;;;;;;;9.30;5.05;;;18.20;97.30;;;;;;4783233;29;20027;-74
2021/09/05 08:15:14;;;;;;;8.73;6.28;;;18.30;96.80;;;;;;4783039;29;20066;-74
2021/09/05 08:17:41;;;;;;;10.07;5.93;;;18.50;96.80;;;;;;4781661;29;20363;-74
2021/09/05 08:20:08;;;;;;;11.88;6.78;;;18.60;96.40;;;;;;4781293;29;20046;-74
2021/09/05 08:22:34;;;;;;;10.85;6.35;;;18.70;96.20;;;;;;4783065;29;20365;-74
2021/09/05 08:25:01;;;;;;;12.00;6.50;;;18.80;96.20;;;;;;4765418;30;20408;-74
2021/09/05 08:27:27;;;;;;;15.25;6.78;;;18.90;96.00;;;;;;4783155;29;20060;-74
2021/09/05 08:29:54;;;;;;;11.43;5.25;;;19.00;95.60;;;;;;4766410;29;20599;-74
2021/09/05 08:32:21;;;;;;;9.18;5.57;;;19.00;95.40;;;;;;4765308;30;20400;-74
2021/09/05 08:34:47;;;;;;;8.13;5.18;;;19.10;95.50;;;;;;4781800;29;20054;-74
2021/09/05 08:37:13;;;;;;;9.48;5.85;;;19.30;95.50;;;;;;4765395;29;20066;-74
2021/09/05 08:39:40;;;;;;;7.75;5.03;;;19.40;95.40;;;;;;4782093;29;20050;-74
2021/09/05 08:42:07;;;;;;;10.23;5.82;;;19.50;95.40;;;;;;4781512;29;20039;-74
2021/09/05 08:44:33;;;;;;;10.70;6.30;;;19.60;95.10;;;;;;4770432;29;20399;-74
2021/09/05 08:47:00;;;;;;;8.52;5.13;;;19.80;94.90;;;;;;4766475;29;20047;-73
2021/09/05 08:49:32;;;;;;;10.05;5.90;;;19.90;94.70;;;;;;4783560;29;20049;-74
2021/09/05 08:51:59;;;;;;;11.18;7.05;;;20.00;94.50;;;;;;4781669;29;20054;-74
2021/09/05 08:54:25;;;;;;;12.65;6.45;;;20.10;94.30;;;;;;4766330;29;20047;-74
2021/09/05 08:56:53;;;;;;;10.32;6.50;;;20.20;93.90;;;;;;4780149;29;20055;-74
2021/09/05 08:59:21;;;;;;;8.18;5.38;;;20.20;93.60;;;;;;4781921;29;20058;-74
2021/09/05 09:01:55;;;;;;;11.45;5.75;;;20.20;93.70;;;;;;4783511;29;20047;-74
2021/09/05 09:04:22;;;;;;;11.88;6.03;;;20.40;93.70;;;;;;4769260;29;20035;-74
2021/09/05 09:06:49;;;;;;;10.00;5.13;;;20.60;93.60;;;;;;4781318;29;20043;-74
2021/09/05 09:09:16;;;;;;;7.60;5.18;;;20.70;93.50;;;;;;4786917;29;20050;-74
2021/09/05 09:11:51;;;;;;;8.63;5.20;;;20.90;93.50;;;;;;4787324;29;20043;-74
2021/09/05 09:14:19;;;;;;;8.65;5.40;;;21.00;93.10;;;;;;4781774;29;20052;-74
2021/09/05 09:16:45;;;;;;;9.85;4.78;;;21.10;92.70;;;;;;4782886;29;20031;-74
2021/09/05 09:19:23;;;;;;;8.35;5.30;;;21.30;92.70;;;;;;4781185;29;20039;-74
2021/09/05 09:21:49;;;;;;;6.22;4.38;;;21.40;92.30;;;;;;4783082;29;20051;-74
2021/09/05 09:24:19;;;;;;;6.45;4.38;;;21.50;92.50;;;;;;4781325;29;20058;-74
2021/09/05 09:27:02;;;;;;;10.10;5.00;;;21.70;92.30;;;;;;4781225;29;20066;-76
2021/09/05 09:29:34;;;;;;;8.57;5.25;;;21.80;91.70;;;;;;4781914;29;20054;-75
2021/09/05 09:32:06;;;;;;;6.72;4.47;;;21.90;91.50;;;;;;4782522;29;20046;-75
2021/09/05 09:34:42;;;;;;;;;;;21.90;91.30;;;;;;4784603;29;20039;-74
2021/09/05 09:37:14;;;;;;;7.15;5.07;;;22.10;90.40;;;;;;4782284;29;20765;-76
2021/09/05 09:39:51;;;;;;;6.10;4.25;;;22.10;90.80;;;;;;4750853;29;20058;-77
2021/09/05 09:42:40;;;;;;;6.53;4.15;;;22.20;91.00;;;;;;4783250;29;20035;-77
2021/09/05 09:45:15;;;;;;;8.20;5.20;;;22.50;90.90;;;;;;4765194;29;20051;-77
2021/09/05 09:47:44;;;;;;;7.35;5.22;;;22.50;89.80;;;;;;4780161;29;20043;-77
2021/09/05 09:50:12;;;;;;;7.00;5.18;;;22.30;89.30;;;;;;4764723;29;20723;-76
2021/09/05 09:52:38;;;;;;;9.80;5.13;;;22.30;89.60;;;;;;4780345;29;20385;-76
2021/09/05 09:55:06;;;;;;;9.48;5.03;;;22.30;89.60;;;;;;4766113;29;20050;-76
2021/09/05 09:57:32;;;;;;;10.82;5.95;;;22.40;89.10;;;;;;4749082;29;20047;-76
2021/09/05 10:00:04;;;;;;;9.35;7.18;;;22.40;88.10;;;;;;4780834;29;20059;-74
2021/09/05 10:02:41;;;;;;;11.75;7.22;;;22.50;87.70;;;;;;4782048;29;20123;-75
2021/09/05 10:05:10;;;;;;;9.70;7.35;;;22.50;87.90;;;;;;4767793;29;20051;-75
2021/09/05 10:07:37;;;;;;;8.65;5.88;;;22.60;88.50;;;;;;4761912;29;20046;-75
2021/09/05 10:10:06;;;;;;;10.43;6.30;;;22.70;87.70;;;;;;4783496;29;20042;-75
2021/09/05 10:12:33;;;;;;;8.98;6.47;;;22.80;87.70;;;;;;4762094;29;20048;-80
2021/09/05 10:15:00;;;;;;;11.85;5.72;;;22.80;86.60;;;;;;4781619;29;20047;-79
2021/09/05 10:17:27;;;;;;;8.30;5.78;;;22.90;86.60;;;;;;4763902;29;20058;-75
2021/09/05 10:19:54;;;;;;;9.25;5.88;;;23.10;86.80;;;;;;4781562;29;20070;-76
2021/09/05 10:22:25;;;;;;;8.98;5.63;;;23.30;86.70;;;;;;4784530;29;20058;-76
2021/09/05 10:24:53;;;;;;;11.18;6.38;;;23.50;85.70;;;;;;4784342;29;20050;-75
2021/09/05 10:27:43;;;;;;;8.32;5.50;;;23.60;84.60;;;;;;4781827;29;20035;-75
2021/09/05 10:30:15;;;;;;;7.38;4.72;;;23.70;83.50;;;;;;4783792;29;20051;-75
2021/09/05 10:32:45;;;;;;;6.80;4.78;;;23.90;83.50;;;;;;4774733;29;20039;-75
2021/09/05 10:35:31;;;;;;;9.30;4.85;;;24.10;83.20;;;;;;4789207;29;20031;-76
2021/09/05 10:38:10;;;;;;;7.88;4.43;;;24.50;82.00;;;;;;4786494;29;20031;-76
2021/09/05 10:40:42;;;;;;;8.60;4.75;;;24.80;81.60;;;;;;4786351;29;20035;-76
2021/09/05 10:43:09;;;;;;;8.18;4.35;;;25.20;81.10;;;;;;4788994;29;20046;-76
2021/09/05 10:45:37;;;;;;;5.57;3.92;;;25.40;80.60;;;;;;4771737;29;20063;-76
2021/09/05 10:48:29;;;;;;;7.95;4.25;;;25.80;79.30;;;;;;4785935;29;20042;-76
2021/09/05 10:51:09;;;;;;;;;;;26.10;77.50;;;;;;4772333;29;20051;-75
2021/09/05 10:53:59;;;;;;;7.82;5.55;;;26.40;76.50;;;;;;4791014;29;19917;-76
2021/09/05 10:56:31;;;;;;;7.32;4.57;;;26.70;73.60;;;;;;4774261;29;20043;-76
2021/09/05 10:59:11;;;;;;;6.40;4.40;;;26.80;72.40;;;;;;4768633;29;20038;-76
2021/09/05 11:01:41;;;;;;;6.50;4.47;;;27.00;71.60;;;;;;4773768;29;20050;-76
2021/09/05 11:04:14;;;;;;;5.00;4.40;;;27.20;71.00;;;;;;4790613;29;20050;-76
2021/09/05 11:06:46;;;;;;;7.68;4.72;;;27.50;70.30;;;;;;4788867;29;20831;-76
2021/09/05 11:09:21;;;;;;;5.97;4.30;;;27.80;68.80;;;;;;4763074;29;20043;-76
2021/09/05 11:11:55;;;;;;;6.22;4.85;;;28.20;67.90;;;;;;4774641;29;20043;-76
2021/09/05 11:14:40;;;;;;;7.18;4.53;;;28.40;66.50;;;;;;4773963;29;20194;-76
2021/09/05 11:17:08;;;;;;;7.32;4.68;;;28.50;65.40;;;;;;4773325;29;20041;-77
2021/09/05 11:19:46;;;;;;;5.65;4.28;;;28.70;64.40;;;;;;4789625;29;20034;-76
2021/09/05 11:22:20;;;;;;;9.02;4.35;;;28.90;64.40;;;;;;4785813;29;20452;-76
2021/09/05 11:25:04;;;;;;;8.75;5.22;;;29.20;64.20;;;;;;4753708;29;20055;-76
2021/09/05 11:27:32;;;;;;;6.63;4.65;;;29.60;62.20;;;;;;4788458;29;20043;-76
2021/09/05 11:30:03;;;;;;;5.80;4.32;;;29.80;60.80;;;;;;4772718;29;20042;-76
2021/09/05 11:32:31;;;;;;;6.80;4.20;;;29.80;59.80;;;;;;4787394;29;20773;-82
2021/09/05 11:34:57;;;;;;;7.22;3.83;;;30.10;59.80;;;;;;4786407;29;20039;-81
2021/09/05 11:37:33;;;;;;;6.05;4.40;;;30.40;59.20;;;;;;4772690;29;20034;-82
2021/09/05 11:40:10;;;;;;;7.80;4.78;;;30.70;57.70;;;;;;4780375;29;20039;-82
2021/09/05 11:42:44;;;;;;;7.32;4.40;;;30.90;54.50;;;;;;4769990;29;20058;-82
2021/09/05 11:45:13;;;;;;;4.97;4.00;;;30.80;54.40;;;;;;4772925;29;20138;-86
2021/09/05 11:47:42;;;;;;;5.90;4.13;;;30.80;54.30;;;;;;4752639;29;20051;-82
2021/09/05 11:50:11;;;;;;;7.90;4.45;;;31.10;54.40;;;;;;4782980;29;20506;-82
2021/09/05 11:52:39;;;;;;;6.72;4.30;;;31.40;54.20;;;;;;4782837;29;20500;-83
2021/09/05 11:55:17;;;;;;;7.55;4.80;;;31.70;54.60;;;;;;4771692;29;20035;-82
2021/09/05 11:57:58;;;;;;;6.30;4.57;;;31.90;53.80;;;;;;4774400;29;20069;-83
2021/09/05 12:00:29;;;;;;;7.00;4.90;;;32.00;52.20;;;;;;4788887;29;20453;-84
2021/09/05 12:02:58;;;;;;;6.82;5.03;;;31.80;52.00;;;;;;4753485;29;20534;-84
2021/09/05 12:05:27;;;;;;;6.22;4.68;;;31.90;51.20;;;;;;4784035;30;20043;-84
2021/09/05 12:07:55;;;;;;;5.57;4.35;;;31.90;51.20;;;;;;4781846;29;20042;-86
2021/09/05 12:10:24;;;;;;;4.82;4.10;;;32.20;50.90;;;;;;4787167;29;20039;-81
2021/09/05 12:13:16;;;;;;;6.10;4.45;;;32.40;50.40;;;;;;4783621;29;20589;-82
2021/09/05 12:15:46;;;;;;;6.72;4.88;;;32.70;49.80;;;;;;4781347;29;20614;-82
2021/09/05 12:18:27;;;;;;;5.47;4.40;;;32.70;48.70;;;;;;4765017;30;20526;-82
2021/09/05 12:20:58;;;;;;;7.10;4.85;;;32.70;48.00;;;;;;4782468;29;20484;-81
2021/09/05 12:23:31;;;;;;;6.32;4.47;;;32.90;48.10;;;;;;4788640;29;20043;-82
2021/09/05 12:26:15;;;;;;;5.20;4.10;;;33.10;47.50;;;;;;4781188;29;20047;-81
2021/09/05 12:28:56;;;;;;;5.68;4.60;;;33.40;46.60;;;;;;4784928;29;20044;-82
2021/09/05 12:31:46;;;;;;;6.15;4.70;;;33.60;46.20;;;;;;4790315;29;20043;-82
2021/09/05 12:34:38;;;;;;;7.78;4.65;;;33.80;45.00;;;;;;4788201;29;20042;-82
2021/09/05 12:37:13;;;;;;;5.03;4.53;;;34.10;44.50;;;;;;4752403;29;20476;-82
2021/09/05 12:39:42;;;;;;;4.63;4.15;;;34.40;44.50;;;;;;4767860;29;20494;-78
2021/09/05 12:42:11;;;;;;;5.95;4.72;;;34.70;45.30;;;;;;4788963;29;20050;-77
2021/09/05 12:44:48;;;;;;;6.55;4.85;;;35.00;44.40;;;;;;4785025;29;20039;-77
2021/09/05 12:47:27;;;;;;;5.10;4.47;;;35.30;43.50;;;;;;4782519;29;20046;-77
2021/09/05 12:49:56;;;;;;;6.22;4.95;;;35.50;43.00;;;;;;4782586;29;20627;-77
2021/09/05 12:52:29;;;;;;;4.68;4.28;;;35.70;42.50;;;;;;4783262;29;20047;-77
2021/09/05 12:55:01;;;;;;;7.10;4.38;;;35.70;42.30;;;;;;4784265;29;20042;-77
2021/09/05 12:57:29;;;;;;;5.45;4.30;;;35.90;42.00;;;;;;4767510;29;20050;-77
2021/09/05 12:59:56;;;;;;;4.95;4.00;;;36.00;41.90;;;;;;4765624;29;20042;-82
2021/09/05 13:02:27;;;;;;;6.22;4.53;;;36.00;42.10;;;;;;4766519;29;20476;-77
2021/09/05 13:04:55;;;;;;;4.85;4.35;;;36.10;41.60;;;;;;4780269;29;20400;-77
2021/09/05 13:07:21;;;;;;;6.38;5.05;;;36.20;41.10;;;;;;4780813;29;20046;-77
2021/09/05 13:09:50;;;;;;;5.22;4.72;;;36.30;40.60;;;;;;4782405;29;20039;-77